createdAt,value
2022-12-11T00:01:14.454Z,2.75
2022-12-11T00:03:41.613Z,2.87
2022-12-11T00:06:10.456Z,3.01
2022-12-11T00:08:37.286Z,3.10
2022-12-11T00:11:04.273Z,3.20
2022-12-11T00:13:30.915Z,3.26
2022-12-11T00:16:00.881Z,3.26
2022-12-11T00:18:27.654Z,3.22
2022-12-11T00:20:54.346Z,3.18
2022-12-11T00:23:21.190Z,3.26
2022-12-11T00:25:48.308Z,3.22
2022-12-11T00:28:18.964Z,3.25
2022-12-11T00:30:45.819Z,3.31
2022-12-11T00:33:13.472Z,3.40
2022-12-11T00:35:41.863Z,3.29
2022-12-11T00:38:09.237Z,3.27
2022-12-11T00:40:37.300Z,3.18
2022-12-11T00:43:04.552Z,3.19
2022-12-11T00:45:31.309Z,3.05
2022-12-11T00:47:57.937Z,3.07
2022-12-11T00:50:24.665Z,3.01
2022-12-11T00:52:51.391Z,3.09
2022-12-11T00:55:18.434Z,3.02
2022-12-11T00:57:45.060Z,3.05
2022-12-11T01:00:13.003Z,3.15
2022-12-11T01:02:39.740Z,3.13
2022-12-11T01:05:06.842Z,3.13
2022-12-11T01:07:33.486Z,3.13
2022-12-11T01:10:18.878Z,3.18
2022-12-11T01:12:45.706Z,3.09
2022-12-11T01:15:12.610Z,3.17
2022-12-11T01:17:39.607Z,3.12
2022-12-11T01:20:06.770Z,3.16
2022-12-11T01:22:33.592Z,3.12
2022-12-11T01:25:00.243Z,3.09
2022-12-11T01:27:27.030Z,3.12
2022-12-11T01:29:53.720Z,3.11
2022-12-11T01:32:20.439Z,3.20
2022-12-11T01:34:47.280Z,3.04
2022-12-11T01:37:14.150Z,3.03
2022-12-11T01:39:40.910Z,2.95
2022-12-11T01:42:10.511Z,2.98
2022-12-11T01:44:37.513Z,2.95
2022-12-11T01:47:04.277Z,2.90
2022-12-11T01:49:31.099Z,2.83
2022-12-11T01:52:08.356Z,2.85
2022-12-11T01:54:35.423Z,2.83
2022-12-11T01:57:05.933Z,2.89
2022-12-11T01:59:35.029Z,2.89
2022-12-11T02:02:08.889Z,2.96
2022-12-11T02:04:38.216Z,2.82
2022-12-11T02:07:05.062Z,2.85
2022-12-11T02:09:34.215Z,2.82
2022-12-11T02:12:11.411Z,2.85
2022-12-11T02:15:00.009Z,2.87
2022-12-11T02:17:35.950Z,2.87
2022-12-11T02:20:16.552Z,2.84
2022-12-11T02:22:43.214Z,2.91
2022-12-11T02:25:35.946Z,2.95
2022-12-11T02:28:16.948Z,2.93
2022-12-11T02:30:47.965Z,2.94
2022-12-11T02:33:15.512Z,2.99
2022-12-11T02:35:43.800Z,3.01
2022-12-11T02:38:18.164Z,2.94
2022-12-11T02:40:45.999Z,2.94
2022-12-11T02:43:14.732Z,2.88
2022-12-11T02:45:42.178Z,2.86
2022-12-11T02:48:11.383Z,2.88
2022-12-11T02:50:41.909Z,2.83
2022-12-11T02:53:11.534Z,2.87
2022-12-11T02:55:38.978Z,2.87
2022-12-11T02:58:09.318Z,2.89
2022-12-11T03:00:36.412Z,2.83
2022-12-11T03:03:03.333Z,2.95
2022-12-11T03:05:30.325Z,2.91
2022-12-11T03:07:57.284Z,2.87
2022-12-11T03:10:24.027Z,2.92
2022-12-11T03:12:53.966Z,2.90
2022-12-11T03:15:22.511Z,2.89
2022-12-11T03:17:55.050Z,2.91
2022-12-11T03:20:44.819Z,2.85
2022-12-11T03:23:22.870Z,2.98
2022-12-11T03:25:56.696Z,2.98
2022-12-11T03:28:32.080Z,2.94
2022-12-11T03:30:58.826Z,2.97
2022-12-11T03:33:34.490Z,3.02
2022-12-11T03:36:07.904Z,3.07
2022-12-11T03:38:49.207Z,3.15
2022-12-11T03:41:18.594Z,3.11
2022-12-11T03:43:46.528Z,3.04
2022-12-11T03:46:14.636Z,3.00
2022-12-11T03:48:42.762Z,2.95
2022-12-11T03:51:09.895Z,3.06
2022-12-11T03:53:37.707Z,2.99
2022-12-11T03:56:07.067Z,3.05
2022-12-11T03:58:33.885Z,3.08
2022-12-11T04:01:00.639Z,3.11
2022-12-11T04:03:27.477Z,3.14
2022-12-11T04:05:55.547Z,3.12
2022-12-11T04:08:25.084Z,3.08
2022-12-11T04:11:10.970Z,3.05
2022-12-11T04:13:38.801Z,3.09
2022-12-11T04:16:05.722Z,3.08
2022-12-11T04:18:50.943Z,3.08
2022-12-11T04:21:39.608Z,3.19
2022-12-11T04:24:16.836Z,3.27
2022-12-11T04:26:47.582Z,3.33
2022-12-11T04:29:15.146Z,3.30
2022-12-11T04:31:42.315Z,3.31
2022-12-11T04:34:09.658Z,3.40
2022-12-11T04:36:36.355Z,3.47
2022-12-11T04:39:04.160Z,3.46
2022-12-11T04:41:30.976Z,3.39
2022-12-11T04:43:57.642Z,3.40
2022-12-11T04:46:25.147Z,3.36
2022-12-11T04:48:57.305Z,3.45
2022-12-11T04:51:25.015Z,3.45
2022-12-11T04:53:51.632Z,3.42
2022-12-11T04:56:18.339Z,3.41
2022-12-11T04:58:45.606Z,3.44
2022-12-11T05:01:20.797Z,3.49
2022-12-11T05:03:47.654Z,3.47
2022-12-11T05:06:14.638Z,3.39
2022-12-11T05:08:42.383Z,3.43
2022-12-11T05:11:11.866Z,3.40
2022-12-11T05:13:39.346Z,3.46
2022-12-11T05:16:07.876Z,3.44
2022-12-11T05:18:34.965Z,3.49
2022-12-11T05:21:08.072Z,3.47
2022-12-11T05:23:35.398Z,3.47
2022-12-11T05:26:05.651Z,3.34
2022-12-11T05:28:35.028Z,3.35
2022-12-11T05:31:24.435Z,3.31
2022-12-11T05:33:52.359Z,3.26
2022-12-11T05:36:24.708Z,3.25
2022-12-11T05:38:52.085Z,3.25
2022-12-11T05:41:20.810Z,3.26
2022-12-11T05:43:48.735Z,3.26
2022-12-11T05:46:20.356Z,3.27
2022-12-11T05:48:48.562Z,3.26
2022-12-11T05:51:16.018Z,3.36
2022-12-11T05:53:43.736Z,3.41
2022-12-11T05:56:15.610Z,3.42
2022-12-11T05:58:43.084Z,3.45
2022-12-11T06:01:11.653Z,3.50
2022-12-11T06:03:38.786Z,3.58
2022-12-11T06:06:06.562Z,3.56
2022-12-11T06:08:33.792Z,3.48
2022-12-11T06:11:00.693Z,3.51
2022-12-11T06:13:27.443Z,3.56
2022-12-11T06:15:54.138Z,3.67
2022-12-11T06:18:21.016Z,3.71
2022-12-11T06:20:56.546Z,3.74
2022-12-11T06:23:23.589Z,3.75
2022-12-11T06:25:50.421Z,3.83
2022-12-11T06:28:17.675Z,3.67
2022-12-11T06:30:45.134Z,3.98
2022-12-11T06:33:12.071Z,4.04
2022-12-11T06:35:42.371Z,4.16
2022-12-11T06:38:10.757Z,4.26
2022-12-11T06:40:37.613Z,4.26
2022-12-11T06:43:04.477Z,4.23
2022-12-11T06:45:31.343Z,4.25
2022-12-11T06:47:58.702Z,4.33
2022-12-11T06:50:25.479Z,4.32
2022-12-11T06:52:52.366Z,4.35
2022-12-11T06:55:19.151Z,4.40
2022-12-11T06:57:45.794Z,4.42
2022-12-11T07:00:13.070Z,4.45
2022-12-11T07:02:39.775Z,4.48
2022-12-11T07:05:07.064Z,4.43
2022-12-11T07:07:34.780Z,4.46
2022-12-11T07:10:07.956Z,4.44
2022-12-11T07:12:35.583Z,4.50
2022-12-11T07:15:02.509Z,4.51
2022-12-11T07:17:29.860Z,4.56
2022-12-11T07:19:56.871Z,4.53
2022-12-11T07:22:23.723Z,4.58
2022-12-11T07:24:50.435Z,4.53
2022-12-11T07:27:17.176Z,4.58
2022-12-11T07:29:45.253Z,4.67
2022-12-11T07:32:12.037Z,4.69
2022-12-11T07:34:44.969Z,4.71
2022-12-11T07:37:13.962Z,4.89
2022-12-11T07:39:40.995Z,4.83
2022-12-11T07:42:07.633Z,4.89
2022-12-11T07:44:34.344Z,4.97
2022-12-11T07:47:01.037Z,4.97
2022-12-11T07:49:27.767Z,4.91
2022-12-11T07:51:54.398Z,4.89
2022-12-11T07:54:21.214Z,4.93
2022-12-11T07:56:53.156Z,4.98
2022-12-11T07:59:21.265Z,4.95
2022-12-11T08:01:48.176Z,4.98
2022-12-11T08:04:15.998Z,4.99
2022-12-11T08:06:43.753Z,5.00
2022-12-11T08:09:17.448Z,5.06
2022-12-11T08:11:49.453Z,5.02
2022-12-11T08:14:16.243Z,5.06
2022-12-11T08:16:44.266Z,5.06
2022-12-11T08:19:14.120Z,5.08
2022-12-11T08:21:45.229Z,5.15
2022-12-11T08:24:12.261Z,5.15
2022-12-11T08:26:39.743Z,5.27
2022-12-11T08:29:06.472Z,5.28
2022-12-11T08:31:33.715Z,5.28
2022-12-11T08:34:00.665Z,5.37
2022-12-11T08:36:27.558Z,5.34
2022-12-11T08:38:55.750Z,5.29
2022-12-11T08:41:28.311Z,5.35
2022-12-11T08:43:57.646Z,5.31
2022-12-11T08:46:26.489Z,5.36
2022-12-11T08:48:54.299Z,5.38
2022-12-11T08:51:23.157Z,5.37
2022-12-11T08:53:50.608Z,5.45
2022-12-11T08:56:20.264Z,5.52
2022-12-11T08:58:47.352Z,5.55
2022-12-11T09:01:16.632Z,5.62
2022-12-11T09:03:43.556Z,5.66
2022-12-11T09:06:12.448Z,5.73
2022-12-11T09:08:39.348Z,5.83
2022-12-11T09:11:16.626Z,5.83
2022-12-11T09:13:43.466Z,5.83
2022-12-11T09:16:16.314Z,5.92
2022-12-11T09:18:43.377Z,5.93
2022-12-11T09:21:13.826Z,5.89
2022-12-11T09:23:43.760Z,5.82
2022-12-11T09:26:16.045Z,5.82
2022-12-11T09:28:46.208Z,5.99
2022-12-11T09:31:40.132Z,6.01
2022-12-11T09:34:09.182Z,6.01
2022-12-11T09:36:36.151Z,6.02
2022-12-11T09:39:05.579Z,6.11
2022-12-11T09:41:40.981Z,6.12
2022-12-11T09:44:40.206Z,6.11
2022-12-11T09:47:34.921Z,6.18
2022-12-11T09:50:10.864Z,6.20
2022-12-11T09:52:40.752Z,6.20
2022-12-11T09:55:20.176Z,6.17
2022-12-11T09:58:18.253Z,6.19
2022-12-11T10:00:51.297Z,6.22
2022-12-11T10:03:39.450Z,6.32
2022-12-11T10:06:18.350Z,6.33
2022-12-11T10:09:07.590Z,6.45
2022-12-11T10:11:48.253Z,6.38
2022-12-11T10:14:35.631Z,6.46
2022-12-11T10:17:13.484Z,6.43
2022-12-11T10:19:41.491Z,6.44
2022-12-11T10:22:18.164Z,6.42
2022-12-11T10:25:15.541Z,6.47
2022-12-11T10:27:43.776Z,6.50
2022-12-11T10:30:18.537Z,6.49
2022-12-11T10:32:45.128Z,6.48
2022-12-11T10:35:32.600Z,6.68
2022-12-11T10:38:15.663Z,6.66
2022-12-11T10:40:46.363Z,6.62
2022-12-11T10:43:13.197Z,6.74
2022-12-11T10:45:40.302Z,6.77
2022-12-11T10:48:10.958Z,6.77
2022-12-11T10:50:38.211Z,6.91
2022-12-11T10:53:21.329Z,6.96
2022-12-11T10:55:48.757Z,6.83
2022-12-11T10:58:21.125Z,6.92
2022-12-11T11:01:19.044Z,6.97
2022-12-11T11:03:57.242Z,7.06
2022-12-11T11:06:24.714Z,7.16
2022-12-11T11:08:53.703Z,7.23
2022-12-11T11:11:27.786Z,7.07
2022-12-11T11:14:17.711Z,7.40
2022-12-11T11:16:48.921Z,7.39
2022-12-11T11:19:23.086Z,7.40
2022-12-11T11:21:52.870Z,7.42
2022-12-11T11:24:29.441Z,7.23
2022-12-11T11:27:12.643Z,7.39
2022-12-11T11:29:41.259Z,7.39
2022-12-11T11:32:29.505Z,7.47
2022-12-11T11:35:06.474Z,7.52
2022-12-11T11:37:34.562Z,7.66
2022-12-11T11:40:18.473Z,7.87
2022-12-11T11:43:03.997Z,7.86
2022-12-11T11:45:40.874Z,7.61
2022-12-11T11:48:19.764Z,7.71
2022-12-11T11:50:50.632Z,7.86
2022-12-11T11:53:24.134Z,7.89
2022-12-11T11:56:18.795Z,8.03
2022-12-11T11:58:59.371Z,8.47
2022-12-11T12:01:26.423Z,8.42
2022-12-11T12:03:53.563Z,8.53
2022-12-11T12:06:50.710Z,8.48
2022-12-11T12:09:30.121Z,8.48
2022-12-11T12:12:10.303Z,8.61
2022-12-11T12:15:14.303Z,8.71
2022-12-11T12:17:55.364Z,8.52
2022-12-11T12:20:48.108Z,8.66
2022-12-11T12:23:36.453Z,8.74
2022-12-11T12:26:11.552Z,8.89
2022-12-11T12:29:12.443Z,8.91
2022-12-11T12:31:45.602Z,8.85
2022-12-11T12:34:30.616Z,8.92
2022-12-11T12:37:28.452Z,8.91
2022-12-11T12:40:31.411Z,8.95
2022-12-11T12:43:35.816Z,8.83
2022-12-11T12:46:11.985Z,8.91
2022-12-11T12:48:39.247Z,9.05
2022-12-11T12:51:06.666Z,9.01
2022-12-11T12:53:35.147Z,9.02
2022-12-11T12:56:03.287Z,8.98
2022-12-11T12:58:36.147Z,9.04
2022-12-11T13:01:19.418Z,8.88
2022-12-11T13:04:06.689Z,8.90
2022-12-11T13:06:36.349Z,9.06
2022-12-11T13:09:25.237Z,9.08
2022-12-11T13:11:58.088Z,9.17
2022-12-11T13:14:32.714Z,9.25
2022-12-11T13:17:21.898Z,9.23
2022-12-11T13:19:53.231Z,9.33
2022-12-11T13:22:24.920Z,9.19
2022-12-11T13:25:05.205Z,9.16
2022-12-11T13:27:35.125Z,9.36
2022-12-11T13:30:25.126Z,9.38
2022-12-11T13:33:07.145Z,9.41
2022-12-11T13:35:35.689Z,9.45
2022-12-11T13:38:24.257Z,9.56
2022-12-11T13:40:55.990Z,9.56
2022-12-11T13:43:30.876Z,9.52
2022-12-11T13:46:06.816Z,9.47
2022-12-11T13:48:50.282Z,9.47
2022-12-11T13:51:19.391Z,9.48
2022-12-11T13:53:46.699Z,9.70
2022-12-11T13:56:19.583Z,9.62
2022-12-11T13:58:47.330Z,9.68
2022-12-11T14:01:34.393Z,9.72
2022-12-11T14:04:05.469Z,9.84
2022-12-11T14:06:34.278Z,9.92
2022-12-11T14:09:02.248Z,9.97
2022-12-11T14:11:42.500Z,9.82
2022-12-11T14:14:19.708Z,9.97
2022-12-11T14:16:51.910Z,9.98
2022-12-11T14:19:20.720Z,9.97
2022-12-11T14:22:02.423Z,10.11
2022-12-11T14:24:30.324Z,10.07
2022-12-11T14:26:57.960Z,10.18
2022-12-11T14:29:30.719Z,10.12
2022-12-11T14:32:02.096Z,10.15
2022-12-11T14:34:34.383Z,10.14
2022-12-11T14:37:03.298Z,10.25
2022-12-11T14:39:36.676Z,10.23
2022-12-11T14:42:11.972Z,10.21
2022-12-11T14:44:44.394Z,10.27
2022-12-11T14:47:16.016Z,10.31
2022-12-11T14:49:48.765Z,10.28
2022-12-11T14:52:33.918Z,10.32
2022-12-11T14:55:06.229Z,10.35
2022-12-11T14:57:33.934Z,10.34
2022-12-11T15:00:01.185Z,10.28
2022-12-11T15:02:33.643Z,10.18
2022-12-11T15:05:18.250Z,10.23
2022-12-11T15:08:03.166Z,10.34
2022-12-11T15:11:14.822Z,10.41
2022-12-11T15:13:52.894Z,10.39
2022-12-11T15:16:20.882Z,10.36
2022-12-11T15:18:58.978Z,10.39
2022-12-11T15:21:31.783Z,10.42
2022-12-11T15:24:01.166Z,10.50
2022-12-11T15:26:35.390Z,10.43
2022-12-11T15:29:05.176Z,10.45
2022-12-11T15:31:34.007Z,10.51
2022-12-11T15:34:01.408Z,10.51
2022-12-11T15:36:31.121Z,10.54
2022-12-11T15:38:58.263Z,10.43
2022-12-11T15:41:25.844Z,10.45
2022-12-11T15:43:58.563Z,10.33
2022-12-11T15:46:25.984Z,10.43
2022-12-11T15:48:54.981Z,10.45
2022-12-11T15:51:23.017Z,10.38
2022-12-11T15:53:49.956Z,10.50
2022-12-11T15:56:17.116Z,10.51
2022-12-11T15:58:45.123Z,10.45
2022-12-11T16:01:12.326Z,10.52
2022-12-11T16:03:39.083Z,10.51
2022-12-11T16:06:06.097Z,10.53
2022-12-11T16:08:33.034Z,10.56
2022-12-11T16:11:00.140Z,10.59
2022-12-11T16:13:27.097Z,10.49
2022-12-11T16:15:54.494Z,10.54
2022-12-11T16:18:23.764Z,10.57
2022-12-11T16:20:51.451Z,10.66
2022-12-11T16:23:18.824Z,10.63
2022-12-11T16:25:46.464Z,10.68
2022-12-11T16:28:14.885Z,10.62
2022-12-11T16:30:43.830Z,10.68
2022-12-11T16:33:13.085Z,10.65
2022-12-11T16:35:41.846Z,10.72
2022-12-11T16:38:10.226Z,10.74
2022-12-11T16:40:37.479Z,10.77
2022-12-11T16:43:05.054Z,10.71
2022-12-11T16:45:32.391Z,10.76
2022-12-11T16:47:59.092Z,10.76
2022-12-11T16:50:26.052Z,10.70
2022-12-11T16:52:53.444Z,10.77
2022-12-11T16:55:22.387Z,10.79
2022-12-11T16:57:49.228Z,10.71
2022-12-11T17:00:16.631Z,10.86
2022-12-11T17:02:43.489Z,10.82
2022-12-11T17:05:10.862Z,10.65
2022-12-11T17:07:37.782Z,10.75
2022-12-11T17:10:05.388Z,10.76
2022-12-11T17:12:32.222Z,10.76
2022-12-11T17:14:59.157Z,10.78
2022-12-11T17:30:01.548Z,10.60
2022-12-11T17:32:28.358Z,10.56
2022-12-11T17:34:54.936Z,10.65
2022-12-11T17:37:21.630Z,10.58
2022-12-11T17:39:48.430Z,10.68
2022-12-11T17:42:15.129Z,10.56
2022-12-11T17:44:42.086Z,10.72
2022-12-11T17:47:11.277Z,10.68
2022-12-11T17:49:39.591Z,10.68
2022-12-11T17:52:06.593Z,10.57
2022-12-11T17:54:33.382Z,10.64
2022-12-11T17:57:00.077Z,10.66
2022-12-11T17:59:26.689Z,10.67
2022-12-11T18:01:53.441Z,10.59
2022-12-11T18:04:20.059Z,10.57
2022-12-11T18:06:46.748Z,10.66
2022-12-11T18:09:13.451Z,10.59
2022-12-11T18:11:40.194Z,10.57
2022-12-11T18:14:07.416Z,10.62
2022-12-11T18:16:38.373Z,10.67
2022-12-11T18:19:06.012Z,10.66
2022-12-11T18:21:35.184Z,10.65
2022-12-11T18:24:02.306Z,10.53
2022-12-11T18:26:29.292Z,10.53
2022-12-11T18:28:56.071Z,10.54
2022-12-11T18:31:23.460Z,10.56
2022-12-11T18:33:50.715Z,10.55
2022-12-11T18:36:18.811Z,10.36
2022-12-11T18:38:45.678Z,10.32
2022-12-11T18:41:13.522Z,10.50
2022-12-11T18:43:40.976Z,10.48
2022-12-11T18:46:16.125Z,10.48
2022-12-11T18:48:42.935Z,10.36
2022-12-11T18:51:15.391Z,10.38
2022-12-11T18:53:42.028Z,10.43
2022-12-11T18:56:11.757Z,9.91
2022-12-11T18:58:38.967Z,8.69
2022-12-11T19:01:11.279Z,8.18
2022-12-11T19:03:38.084Z,7.73
2022-12-11T19:06:12.983Z,7.47
2022-12-11T19:08:40.354Z,7.14
2022-12-11T19:11:08.124Z,7.01
2022-12-11T19:13:34.955Z,6.74
2022-12-11T19:16:01.951Z,6.63
2022-12-11T19:18:28.648Z,6.56
2022-12-11T19:21:06.469Z,6.35
2022-12-11T19:23:34.898Z,6.24
2022-12-11T19:26:01.705Z,6.11
2022-12-11T19:28:28.380Z,6.12
2022-12-11T19:30:55.070Z,6.05
2022-12-11T19:33:21.981Z,5.84
2022-12-11T19:35:48.731Z,5.94
2022-12-11T19:38:15.420Z,5.69
2022-12-11T19:40:43.859Z,5.64
2022-12-11T19:43:10.749Z,5.64
2022-12-11T19:45:37.433Z,5.68
2022-12-11T19:48:04.347Z,5.63
2022-12-11T19:50:30.982Z,5.46
2022-12-11T19:52:57.749Z,5.41
2022-12-11T19:55:24.415Z,5.30
2022-12-11T19:57:51.050Z,5.28
2022-12-11T20:00:18.972Z,5.08
2022-12-11T20:02:45.606Z,4.84
2022-12-11T20:05:13.275Z,4.76
2022-12-11T20:07:40.186Z,4.57
2022-12-11T20:10:07.463Z,4.53
2022-12-11T20:13:01.950Z,4.42
2022-12-11T20:15:34.850Z,4.37
2022-12-11T20:18:15.398Z,4.28
2022-12-11T20:20:47.425Z,3.79
2022-12-11T20:23:14.607Z,3.85
2022-12-11T20:25:41.466Z,4.06
2022-12-11T20:28:08.278Z,3.97
2022-12-11T20:30:41.450Z,3.85
2022-12-11T20:33:08.214Z,3.70
2022-12-11T20:35:35.008Z,3.75
2022-12-11T20:38:01.659Z,3.68
2022-12-11T20:40:28.985Z,3.64
2022-12-11T20:42:55.634Z,3.45
2022-12-11T20:45:22.322Z,3.67
2022-12-11T20:47:49.226Z,3.53
2022-12-11T20:50:16.116Z,3.44
2022-12-11T20:52:42.787Z,3.53
2022-12-11T20:55:10.077Z,3.43
2022-12-11T20:57:40.630Z,3.30
2022-12-11T21:00:12.295Z,3.27
2022-12-11T21:02:39.098Z,3.34
2022-12-11T21:05:09.018Z,3.25
2022-12-11T21:07:35.771Z,3.20
2022-12-11T21:10:02.356Z,3.16
2022-12-11T21:12:31.680Z,3.12
2022-12-11T21:14:58.583Z,3.18
2022-12-11T21:17:25.279Z,3.20
2022-12-11T21:19:52.031Z,3.27
2022-12-11T21:22:18.640Z,3.18
2022-12-11T21:24:45.431Z,2.86
2022-12-11T21:27:12.041Z,2.91
2022-12-11T21:29:38.795Z,2.73
2022-12-11T21:32:05.791Z,2.81
2022-12-11T21:34:32.445Z,2.67
2022-12-11T21:36:59.525Z,2.53
2022-12-11T21:39:28.705Z,2.44
2022-12-11T21:41:55.418Z,2.51
2022-12-11T21:47:08.873Z,2.51
2022-12-11T21:49:35.569Z,2.15
2022-12-11T21:52:02.715Z,2.33
2022-12-11T21:54:29.531Z,2.15
2022-12-11T21:56:56.259Z,2.13
2022-12-11T21:59:23.027Z,2.25
2022-12-11T22:01:49.724Z,2.34
2022-12-11T22:04:16.884Z,2.06
2022-12-11T22:06:47.070Z,2.24
2022-12-11T22:09:15.476Z,2.08
2022-12-11T22:11:43.082Z,1.98
2022-12-11T22:14:13.380Z,1.64
2022-12-11T22:16:40.232Z,1.56
2022-12-11T22:19:06.932Z,1.37
2022-12-11T22:21:33.556Z,1.29
2022-12-11T22:24:00.461Z,1.17
2022-12-11T22:26:28.020Z,1.09
2022-12-11T22:28:55.631Z,1.12
2022-12-11T22:31:24.189Z,1.27
2022-12-11T22:33:53.718Z,1.09
2022-12-11T22:36:21.368Z,1.31
2022-12-11T22:38:48.040Z,1.20
2022-12-11T22:41:30.099Z,1.14
2022-12-11T22:43:57.295Z,1.15
2022-12-11T22:46:26.846Z,1.10
2022-12-11T22:48:53.753Z,1.04
2022-12-11T22:51:20.981Z,1.15
2022-12-11T22:53:47.737Z,1.06
2022-12-11T22:56:14.690Z,1.13
2022-12-11T22:58:41.514Z,1.03
2022-12-11T23:01:10.916Z,1.17
2022-12-11T23:03:38.585Z,1.15
2022-12-11T23:06:08.940Z,1.18
2022-12-11T23:08:36.008Z,1.27
2022-12-11T23:11:03.850Z,1.04
2022-12-11T23:13:30.659Z,1.01
2022-12-11T23:15:57.232Z,1.09
2022-12-11T23:18:23.839Z,1.05
2022-12-11T23:20:50.720Z,1.00
2022-12-11T23:23:17.440Z,1.15
2022-12-11T23:25:44.321Z,1.02
2022-12-11T23:28:10.923Z,1.01
2022-12-11T23:30:37.590Z,0.93
2022-12-11T23:33:06.610Z,0.95
2022-12-11T23:35:33.643Z,0.89
2022-12-11T23:38:00.414Z,1.04
2022-12-11T23:40:27.152Z,0.96
2022-12-11T23:42:53.983Z,0.99
2022-12-11T23:45:21.226Z,1.08
2022-12-11T23:47:47.871Z,0.97
2022-12-11T23:50:14.556Z,0.89
2022-12-11T23:52:41.592Z,1.01
2022-12-11T23:55:08.533Z,0.92
2022-12-11T23:57:35.677Z,0.87
